createdAt,value
2024-03-13T00:02:38.823Z,11.10
2024-03-13T00:06:40.584Z,9.93
2024-03-13T00:10:42.494Z,11.10
2024-03-13T00:14:52.151Z,9.80
2024-03-13T00:18:53.872Z,9.88
2024-03-13T00:22:56.153Z,11.65
2024-03-13T00:26:58.920Z,10.80
2024-03-13T00:31:01.368Z,11.38
2024-03-13T00:35:04.295Z,10.07
2024-03-13T00:39:06.182Z,10.30
2024-03-13T00:43:07.968Z,11.45
2024-03-13T00:47:10.905Z,9.73
2024-03-13T00:51:35.049Z,9.82
2024-03-13T00:55:36.904Z,10.75
2024-03-13T00:59:40.944Z,8.73
2024-03-13T01:03:42.714Z,10.43
2024-03-13T01:07:51.636Z,10.77
2024-03-13T01:11:54.087Z,9.82
2024-03-13T01:15:56.424Z,10.50
2024-03-13T01:19:58.416Z,10.60
2024-03-13T01:24:00.470Z,12.35
2024-03-13T01:28:02.340Z,10.52
2024-03-13T01:37:45.146Z,17.63
2024-03-13T01:42:25.539Z,14.05
2024-03-13T01:46:46.066Z,17.67
2024-03-13T01:51:06.560Z,21.17
2024-03-13T01:55:25.860Z,15.50
2024-03-13T01:59:38.475Z,16.15
2024-03-13T02:03:40.402Z,14.55
2024-03-13T02:07:42.748Z,16.23
2024-03-13T02:11:44.598Z,19.45
2024-03-13T02:15:46.674Z,14.75
2024-03-13T02:19:49.042Z,14.77
2024-03-13T02:23:50.837Z,18.13
2024-03-13T02:27:52.781Z,19.42
2024-03-13T02:31:54.576Z,21.40
2024-03-13T02:35:56.358Z,18.38
2024-03-13T02:39:58.111Z,13.57
2024-03-13T02:49:22.907Z,14.68
2024-03-13T02:53:24.651Z,15.32
2024-03-13T02:57:26.479Z,16.17
2024-03-13T03:01:28.305Z,11.15
2024-03-13T03:05:36.649Z,9.52
2024-03-13T03:09:38.390Z,13.10
2024-03-13T03:13:40.189Z,11.13
2024-03-13T03:17:42.007Z,8.48
2024-03-13T03:21:43.870Z,11.30
2024-03-13T03:25:45.879Z,9.95
2024-03-13T03:30:34.767Z,10.20
2024-03-13T03:34:36.957Z,12.25
2024-03-13T03:38:38.777Z,10.73
2024-03-13T03:42:40.924Z,11.50
2024-03-13T03:46:42.672Z,11.73
2024-03-13T03:50:44.482Z,9.88
2024-03-13T03:54:46.259Z,9.43
2024-03-13T03:58:49.030Z,9.95
2024-03-13T04:02:52.916Z,12.07
2024-03-13T04:06:54.962Z,14.25
2024-03-13T04:16:18.922Z,13.27
2024-03-13T04:20:22.338Z,11.27
2024-03-13T04:24:24.620Z,11.02
2024-03-13T04:28:38.119Z,13.40
2024-03-13T04:32:39.909Z,11.63
2024-03-13T04:36:41.737Z,10.10
2024-03-13T04:40:43.849Z,11.20
2024-03-13T04:44:45.823Z,9.80
2024-03-13T04:48:47.663Z,11.82
2024-03-13T04:52:49.672Z,11.75
2024-03-13T04:56:51.416Z,12.27
2024-03-13T05:00:53.217Z,11.68
2024-03-13T05:04:55.171Z,12.07
2024-03-13T05:09:05.070Z,12.95
2024-03-13T05:13:06.830Z,10.75
2024-03-13T05:17:10.475Z,13.88
2024-03-13T05:21:15.081Z,13.10
2024-03-13T05:25:44.848Z,9.70
2024-03-13T05:29:46.668Z,10.93
2024-03-13T05:33:49.027Z,11.57
2024-03-13T05:37:51.129Z,10.40
2024-03-13T05:41:52.999Z,10.20
2024-03-13T05:45:55.238Z,9.35
2024-03-13T05:49:57.060Z,11.35
2024-03-13T05:53:59.298Z,9.05
2024-03-13T05:58:01.122Z,8.13
2024-03-13T06:02:03.009Z,9.15
2024-03-13T06:06:05.051Z,9.85
2024-03-13T06:10:09.606Z,7.10
2024-03-13T06:14:11.492Z,6.82
2024-03-13T06:18:14.270Z,8.88
2024-03-13T06:22:57.014Z,6.38
2024-03-13T06:27:04.243Z,6.63
2024-03-13T06:31:06.109Z,7.22
2024-03-13T06:46:43.671Z,7.47
2024-03-13T06:50:45.846Z,8.57
2024-03-13T06:54:47.728Z,7.53
2024-03-13T06:58:49.526Z,8.23
2024-03-13T07:02:51.398Z,8.48
2024-03-13T07:06:59.033Z,8.60
2024-03-13T07:15:02.604Z,10.13
2024-03-13T07:19:08.447Z,11.98
2024-03-13T07:23:10.214Z,8.32
2024-03-13T07:27:12.020Z,8.77
2024-03-13T07:31:54.616Z,10.27
2024-03-13T07:46:42.143Z,10.95
2024-03-13T07:50:44.215Z,12.10
2024-03-13T07:54:46.024Z,10.23
2024-03-13T07:58:47.900Z,12.48
2024-03-13T08:02:49.961Z,13.20
2024-03-13T09:07:30.459Z,14.80
2024-03-13T09:11:32.740Z,16.77
2024-03-13T09:15:34.607Z,15.38
2024-03-13T09:19:39.779Z,14.32
2024-03-13T09:23:41.479Z,10.95
2024-03-13T09:27:43.201Z,11.55
2024-03-13T09:31:44.947Z,11.27
2024-03-13T09:35:47.031Z,11.88
2024-03-13T09:39:49.946Z,11.57
2024-03-13T09:43:52.112Z,10.60
2024-03-13T09:47:54.628Z,9.40
2024-03-13T09:51:56.987Z,11.02
2024-03-13T09:55:59.261Z,9.85
2024-03-13T10:00:03.342Z,9.68
2024-03-13T10:04:12.486Z,11.35
2024-03-13T10:08:14.433Z,10.50
2024-03-13T10:12:23.264Z,10.23
2024-03-13T10:16:27.012Z,11.38
2024-03-13T10:20:41.789Z,8.38
2024-03-13T10:24:44.062Z,10.57
2024-03-13T10:28:46.224Z,12.88
2024-03-13T10:32:49.841Z,9.20
2024-03-13T10:37:01.008Z,9.68
2024-03-13T10:41:12.898Z,9.90
2024-03-13T10:45:15.499Z,10.90
2024-03-13T10:49:18.519Z,8.85
2024-03-13T10:53:20.550Z,12.38
2024-03-13T10:57:22.553Z,8.50
2024-03-13T11:01:24.427Z,9.15
2024-03-13T11:05:27.201Z,9.75
2024-03-13T11:09:29.333Z,6.22
2024-03-13T11:13:31.988Z,8.95
2024-03-13T11:17:37.196Z,9.38
2024-03-13T11:22:00.290Z,7.60
2024-03-13T11:26:07.624Z,8.25
2024-03-13T11:30:20.859Z,9.25
2024-03-13T11:34:25.221Z,8.75
2024-03-13T11:38:27.300Z,8.30
2024-03-13T11:42:32.232Z,5.53
2024-03-13T11:46:44.909Z,8.63
2024-03-13T11:51:02.326Z,7.00
2024-03-13T11:59:09.500Z,6.20
2024-03-13T12:03:12.917Z,6.30
2024-03-13T12:07:18.350Z,5.60
2024-03-13T12:11:21.918Z,5.05
2024-03-13T12:15:24.842Z,5.32
2024-03-13T12:19:27.913Z,4.75
2024-03-13T12:23:29.836Z,6.50
2024-03-13T12:27:33.070Z,5.05
2024-03-13T12:31:34.810Z,7.70
2024-03-13T12:35:37.545Z,4.07
2024-03-13T12:39:40.348Z,4.85
2024-03-13T12:43:44.619Z,5.97
2024-03-13T12:47:47.962Z,8.18
2024-03-13T12:51:54.075Z,6.90
2024-03-13T12:55:56.108Z,5.35
2024-03-13T12:59:59.510Z,7.47
2024-03-13T13:04:01.692Z,5.38
2024-03-13T13:08:03.690Z,9.00
2024-03-13T13:12:07.412Z,7.13
2024-03-13T13:16:11.862Z,8.00
2024-03-13T13:20:14.527Z,10.68
2024-03-13T13:24:16.848Z,7.03
2024-03-13T13:28:19.826Z,8.25
2024-03-13T13:32:21.503Z,8.93
2024-03-13T13:36:24.086Z,7.78
2024-03-13T13:40:25.937Z,10.00
2024-03-13T13:44:28.506Z,10.52
2024-03-13T13:48:30.362Z,12.35
2024-03-13T13:52:32.179Z,13.80
2024-03-13T13:56:33.934Z,12.70
2024-03-13T14:00:37.675Z,13.40
2024-03-13T14:04:42.092Z,12.40
2024-03-13T14:08:43.856Z,12.32
2024-03-13T14:12:45.710Z,13.38
2024-03-13T14:16:48.085Z,9.02
2024-03-13T14:20:49.894Z,9.65
2024-03-13T14:24:52.736Z,7.68
2024-03-13T14:28:54.432Z,9.80
2024-03-13T14:32:56.172Z,8.95
2024-03-13T14:36:58.007Z,8.65
2024-03-13T14:41:00.030Z,6.93
2024-03-13T14:45:03.546Z,6.95
2024-03-13T14:49:05.619Z,6.35
2024-03-13T14:53:09.446Z,9.75
2024-03-13T14:57:12.343Z,7.43
2024-03-13T15:01:14.275Z,6.03
2024-03-13T15:05:16.128Z,5.70
2024-03-13T15:09:18.336Z,5.82
2024-03-13T15:13:20.174Z,6.20
2024-03-13T15:17:25.058Z,8.13
2024-03-13T15:21:27.877Z,6.20
2024-03-13T15:25:29.655Z,4.85
2024-03-13T15:29:33.937Z,5.57
2024-03-13T15:33:38.130Z,5.07
2024-03-13T15:37:39.974Z,5.20
2024-03-13T15:41:43.923Z,4.85
2024-03-13T15:45:45.863Z,6.80
2024-03-13T15:49:48.265Z,6.07
2024-03-13T15:53:50.148Z,6.43
2024-03-13T15:57:52.597Z,6.60
2024-03-13T16:07:26.817Z,6.30
2024-03-13T16:11:30.322Z,5.07
2024-03-13T16:15:36.752Z,5.18
2024-03-13T16:19:39.169Z,6.10
2024-03-13T16:23:41.494Z,5.90
2024-03-13T16:27:43.451Z,5.03
2024-03-13T16:31:45.242Z,5.22
2024-03-13T16:35:46.999Z,6.00
2024-03-13T16:39:48.800Z,5.72
2024-03-13T16:43:50.547Z,6.03
2024-03-13T16:47:52.438Z,5.85
2024-03-13T16:51:54.377Z,5.03
2024-03-13T16:55:56.167Z,6.15
2024-03-13T16:59:58.688Z,5.57
2024-03-13T17:04:00.573Z,5.35
2024-03-13T17:08:02.662Z,4.80
2024-03-13T17:12:04.785Z,5.55
2024-03-13T17:16:11.541Z,4.50
2024-03-13T17:20:15.162Z,5.33
2024-03-13T17:24:17.023Z,4.82
2024-03-13T17:28:18.749Z,5.60
2024-03-13T17:32:21.376Z,5.45
2024-03-13T17:36:23.314Z,6.00
2024-03-13T17:40:25.062Z,5.40
2024-03-13T17:44:26.867Z,5.47
2024-03-13T17:48:28.763Z,5.70
2024-03-13T17:52:30.574Z,5.13
2024-03-13T17:56:33.121Z,5.78
2024-03-13T18:00:34.929Z,6.75
2024-03-13T18:04:36.664Z,5.55
2024-03-13T18:08:38.497Z,6.05
2024-03-13T18:12:40.414Z,5.40
2024-03-13T18:16:43.252Z,4.95
2024-03-13T18:20:45.052Z,7.55
2024-03-13T18:24:46.866Z,7.40
2024-03-13T18:28:48.823Z,6.20
2024-03-13T18:32:52.790Z,7.03
2024-03-13T18:36:55.914Z,6.60
2024-03-13T18:40:58.947Z,5.47
2024-03-13T18:45:00.716Z,5.55
2024-03-13T18:49:03.469Z,6.30
2024-03-13T18:53:05.400Z,6.78
2024-03-13T18:57:07.405Z,9.55
2024-03-13T19:01:09.394Z,6.15
2024-03-13T19:05:18.638Z,5.90
2024-03-13T19:09:26.309Z,5.65
2024-03-13T19:13:28.155Z,5.68
2024-03-13T19:17:30.023Z,7.07
2024-03-13T19:21:32.135Z,6.68
2024-03-13T19:25:34.572Z,6.57
2024-03-13T19:29:36.852Z,6.47
2024-03-13T19:33:39.056Z,6.85
2024-03-13T19:37:40.904Z,5.50
2024-03-13T19:41:42.911Z,6.60
2024-03-13T19:45:44.704Z,6.43
2024-03-13T19:49:46.444Z,6.38
2024-03-13T19:53:48.338Z,7.65
2024-03-13T19:57:50.201Z,9.30
2024-03-13T20:01:51.924Z,5.10
2024-03-13T20:05:53.666Z,7.18
2024-03-13T20:15:17.694Z,5.88
2024-03-13T20:19:19.651Z,4.80
2024-03-13T20:23:21.392Z,4.90
2024-03-13T20:27:23.979Z,6.47
2024-03-13T20:31:25.782Z,4.90
2024-03-13T20:35:27.597Z,4.60
2024-03-13T20:39:29.428Z,4.47
2024-03-13T20:43:31.273Z,5.60
2024-03-13T20:47:33.108Z,5.68
2024-03-13T20:51:37.367Z,5.60
2024-03-13T20:55:40.398Z,5.28
2024-03-13T20:59:42.226Z,4.70
2024-03-13T21:04:05.544Z,4.90
2024-03-13T21:08:07.899Z,5.78
2024-03-13T21:12:47.058Z,5.43
2024-03-13T21:16:52.360Z,5.63
2024-03-13T21:20:55.510Z,5.22
2024-03-13T21:24:57.297Z,6.05
2024-03-13T21:28:59.084Z,5.97
2024-03-13T21:33:00.967Z,5.97
2024-03-13T21:37:02.786Z,7.25
2024-03-13T21:41:09.048Z,7.70
2024-03-13T21:45:11.339Z,8.33
2024-03-13T21:49:14.295Z,6.82
2024-03-13T21:53:16.814Z,6.75
2024-03-13T21:57:19.716Z,7.30
2024-03-13T22:01:21.518Z,6.70
2024-03-13T22:05:23.263Z,6.50
2024-03-13T22:09:25.123Z,8.90
2024-03-13T22:13:27.979Z,8.05
2024-03-13T22:17:31.303Z,7.30
2024-03-13T22:21:33.242Z,6.95
2024-03-13T22:25:37.857Z,7.65
2024-03-13T22:29:39.864Z,10.90
2024-03-13T22:33:41.699Z,9.98
2024-03-13T22:37:43.540Z,7.65
2024-03-13T22:41:46.187Z,7.15
2024-03-13T22:45:48.348Z,6.75
2024-03-13T22:49:52.193Z,7.30
2024-03-13T22:53:54.052Z,6.63
2024-03-13T22:57:55.763Z,7.68
2024-03-13T23:01:58.403Z,5.72
2024-03-13T23:06:00.534Z,6.72
2024-03-13T23:10:02.382Z,5.22
2024-03-13T23:14:05.592Z,7.45
2024-03-13T23:18:09.147Z,5.53
2024-03-13T23:22:10.917Z,6.93
2024-03-13T23:26:14.103Z,5.85
2024-03-13T23:30:15.932Z,6.35
2024-03-13T23:34:17.952Z,7.25
2024-03-13T23:38:20.102Z,10.50
2024-03-13T23:42:24.991Z,9.05
2024-03-13T23:46:26.814Z,8.25
2024-03-13T23:50:29.584Z,9.38
2024-03-13T23:54:31.633Z,8.32
2024-03-13T23:58:36.393Z,8.60
